createdAt,value
2023-03-07T00:01:28.087Z,29.80
2023-03-07T00:03:55.784Z,29.75
2023-03-07T00:06:23.058Z,29.67
2023-03-07T00:08:51.855Z,30.10
2023-03-07T00:11:19.179Z,30.67
2023-03-07T00:13:46.119Z,29.10
2023-03-07T00:16:15.578Z,31.08
2023-03-07T00:18:43.924Z,31.58
2023-03-07T00:21:13.531Z,32.17
2023-03-07T00:23:42.428Z,30.83
2023-03-07T00:26:15.564Z,29.45
2023-03-07T00:28:42.387Z,31.45
2023-03-07T00:31:10.982Z,30.88
2023-03-07T00:33:38.557Z,33.50
2023-03-07T00:36:12.095Z,33.65
2023-03-07T00:38:39.476Z,31.65
2023-03-07T00:41:08.925Z,32.67
2023-03-07T00:43:36.447Z,33.72
2023-03-07T00:46:03.843Z,33.28
2023-03-07T00:48:34.104Z,33.22
2023-03-07T00:51:00.961Z,32.58
2023-03-07T00:53:27.955Z,33.85
2023-03-07T00:55:59.648Z,34.80
2023-03-07T01:02:07.612Z,32.70
2023-03-07T01:04:34.503Z,33.67
2023-03-07T01:07:01.358Z,33.83
2023-03-07T01:09:28.185Z,32.00
2023-03-07T01:11:54.985Z,33.40
2023-03-07T01:14:21.760Z,32.97
2023-03-07T01:16:48.721Z,32.75
2023-03-07T01:19:15.606Z,32.78
2023-03-07T01:21:44.248Z,31.00
2023-03-07T01:24:14.737Z,32.35
2023-03-07T01:26:41.697Z,31.85
2023-03-07T01:29:10.760Z,31.52
2023-03-07T01:31:37.692Z,34.78
2023-03-07T01:34:05.508Z,32.90
2023-03-07T01:36:34.398Z,30.85
2023-03-07T01:39:23.237Z,33.80
2023-03-07T01:41:50.135Z,33.10
2023-03-07T01:44:20.182Z,34.00
2023-03-07T01:47:00.633Z,33.78
2023-03-07T01:49:35.871Z,35.30
2023-03-07T01:52:13.309Z,34.45
2023-03-07T01:54:48.945Z,33.60
2023-03-07T01:57:20.569Z,32.80
2023-03-07T01:59:51.683Z,35.92
2023-03-07T02:02:22.663Z,32.00
2023-03-07T02:05:13.064Z,33.50
2023-03-07T02:07:46.358Z,35.88
2023-03-07T02:10:15.872Z,35.05
2023-03-07T02:12:42.858Z,34.92
2023-03-07T02:15:11.708Z,36.60
2023-03-07T02:17:40.536Z,33.50
2023-03-07T02:20:35.235Z,34.08
2023-03-07T02:23:04.235Z,33.63
2023-03-07T02:25:41.343Z,32.53
2023-03-07T02:28:12.534Z,33.35
2023-03-07T02:30:52.169Z,33.88
2023-03-07T02:33:19.084Z,34.08
2023-03-07T02:35:46.835Z,35.92
2023-03-07T02:38:13.726Z,35.75
2023-03-07T02:40:41.216Z,33.95
2023-03-07T02:43:09.689Z,37.30
2023-03-07T02:45:36.638Z,36.33
2023-03-07T02:48:03.598Z,37.30
2023-03-07T02:50:30.380Z,36.15
2023-03-07T02:52:57.213Z,36.47
2023-03-07T02:55:24.253Z,35.20
2023-03-07T02:57:51.163Z,37.33
2023-03-07T03:00:18.359Z,35.15
2023-03-07T03:02:45.239Z,37.08
2023-03-07T03:05:12.113Z,36.53
2023-03-07T03:07:39.228Z,36.60
2023-03-07T03:10:06.779Z,37.33
2023-03-07T03:12:33.628Z,36.83
2023-03-07T03:15:00.492Z,38.38
2023-03-07T03:17:27.446Z,36.75
2023-03-07T03:19:54.248Z,35.20
2023-03-07T03:22:21.116Z,34.90
2023-03-07T03:24:48.001Z,34.53
2023-03-07T03:27:15.134Z,35.80
2023-03-07T03:29:41.958Z,33.97
2023-03-07T03:32:08.871Z,34.65
2023-03-07T03:34:35.756Z,35.33
2023-03-07T03:37:02.554Z,38.78
2023-03-07T03:39:29.371Z,33.28
2023-03-07T03:41:57.148Z,34.03
2023-03-07T03:44:24.297Z,31.77
2023-03-07T03:46:51.312Z,32.97
2023-03-07T03:49:19.612Z,32.00
2023-03-07T03:51:46.538Z,33.25
2023-03-07T03:54:13.589Z,33.75
2023-03-07T03:56:40.590Z,32.33
2023-03-07T03:59:07.841Z,31.58
2023-03-07T04:01:34.892Z,32.90
2023-03-07T04:04:02.185Z,30.98
2023-03-07T04:06:31.584Z,33.53
2023-03-07T04:08:59.536Z,33.72
2023-03-07T04:11:26.693Z,33.15
2023-03-07T04:13:53.614Z,34.08
2023-03-07T04:16:22.521Z,36.92
2023-03-07T04:18:52.509Z,34.40
2023-03-07T04:21:20.885Z,33.97
2023-03-07T04:23:49.699Z,34.60
2023-03-07T04:26:16.663Z,32.78
2023-03-07T04:28:44.120Z,34.15
2023-03-07T04:31:16.290Z,33.67
2023-03-07T04:33:43.954Z,33.97
2023-03-07T04:36:11.720Z,34.15
2023-03-07T04:38:39.339Z,34.75
2023-03-07T04:41:19.411Z,36.40
2023-03-07T04:43:46.979Z,34.00
2023-03-07T04:46:16.591Z,35.58
2023-03-07T04:48:43.665Z,32.20
2023-03-07T04:51:10.507Z,33.50
2023-03-07T04:53:37.429Z,34.10
2023-03-07T04:56:06.625Z,36.65
2023-03-07T04:58:34.200Z,37.80
2023-03-07T05:01:03.488Z,35.80
2023-03-07T05:03:30.868Z,35.95
2023-03-07T05:06:02.187Z,34.05
2023-03-07T05:08:29.020Z,35.80
2023-03-07T05:10:56.000Z,34.33
2023-03-07T05:13:22.931Z,37.20
2023-03-07T05:15:54.460Z,35.80
2023-03-07T05:18:21.407Z,36.72
2023-03-07T05:20:48.607Z,38.20
2023-03-07T05:23:15.819Z,37.92
2023-03-07T05:25:43.576Z,30.00
2023-03-07T05:28:10.633Z,32.63
2023-03-07T05:30:37.495Z,31.05
2023-03-07T05:33:04.660Z,32.28
2023-03-07T05:35:31.532Z,32.55
2023-03-07T05:37:58.367Z,34.80
2023-03-07T05:40:25.230Z,33.70
2023-03-07T05:42:52.026Z,32.08
2023-03-07T05:45:20.360Z,36.38
2023-03-07T05:47:47.518Z,39.30
2023-03-07T05:50:14.625Z,33.28
2023-03-07T05:52:42.666Z,32.22
2023-03-07T05:55:09.742Z,30.83
2023-03-07T05:57:36.612Z,30.98
2023-03-07T06:00:06.340Z,30.25
2023-03-07T06:02:33.549Z,28.02
2023-03-07T06:05:00.455Z,24.70
2023-03-07T06:07:27.416Z,25.40
2023-03-07T06:09:54.356Z,24.38
2023-03-07T06:12:21.190Z,20.67
2023-03-07T06:14:48.026Z,23.45
2023-03-07T06:17:14.906Z,22.75
2023-03-07T06:19:41.711Z,20.73
2023-03-07T06:22:09.018Z,20.63
2023-03-07T06:24:35.847Z,22.65
2023-03-07T06:27:02.802Z,21.77
2023-03-07T06:29:29.667Z,22.00
2023-03-07T06:31:56.471Z,23.05
2023-03-07T06:34:23.754Z,22.35
2023-03-07T06:36:50.602Z,23.10
2023-03-07T06:39:21.046Z,21.63
2023-03-07T06:41:51.517Z,21.30
2023-03-07T06:44:18.701Z,22.00
2023-03-07T06:46:46.527Z,24.27
2023-03-07T06:49:13.580Z,26.02
2023-03-07T06:51:40.531Z,27.80
2023-03-07T06:54:07.479Z,25.85
2023-03-07T06:56:35.290Z,23.20
2023-03-07T06:59:02.234Z,24.25
2023-03-07T07:01:29.120Z,25.52
2023-03-07T07:03:56.888Z,25.40
2023-03-07T07:06:23.728Z,26.75
2023-03-07T07:08:58.506Z,29.20
2023-03-07T07:11:26.408Z,29.15
2023-03-07T07:13:53.310Z,37.60
2023-03-07T07:16:20.886Z,37.97
2023-03-07T07:18:49.651Z,40.67
2023-03-07T07:21:16.587Z,38.67
2023-03-07T07:23:43.510Z,38.45
2023-03-07T07:26:10.412Z,38.70
2023-03-07T07:28:37.228Z,38.72
2023-03-07T07:31:04.201Z,39.63
2023-03-07T07:33:31.662Z,40.72
2023-03-07T07:35:58.477Z,39.58
2023-03-07T07:38:25.387Z,41.05
2023-03-07T07:40:52.181Z,41.33
2023-03-07T07:43:19.031Z,42.60
2023-03-07T07:45:46.073Z,40.42
2023-03-07T07:48:12.920Z,41.60
2023-03-07T07:50:39.790Z,40.95
2023-03-07T07:53:06.720Z,41.03
2023-03-07T07:55:33.716Z,41.88
2023-03-07T07:58:00.625Z,44.97
2023-03-07T08:00:27.472Z,44.20
2023-03-07T08:02:54.429Z,44.47
2023-03-07T08:05:22.190Z,45.70
2023-03-07T08:07:50.447Z,45.47
2023-03-07T08:10:18.294Z,44.45
2023-03-07T08:12:50.907Z,45.58
2023-03-07T08:15:19.517Z,45.80
2023-03-07T08:17:46.411Z,46.05
2023-03-07T08:20:13.411Z,46.33
2023-03-07T08:22:40.301Z,46.20
2023-03-07T08:25:08.409Z,46.85
2023-03-07T08:27:35.242Z,45.45
2023-03-07T08:30:02.019Z,45.55
2023-03-07T08:32:28.838Z,45.88
2023-03-07T08:34:55.738Z,45.38
2023-03-07T08:37:22.550Z,46.38
2023-03-07T08:39:49.528Z,46.03
2023-03-07T08:42:16.490Z,46.70
2023-03-07T08:44:43.396Z,46.55
2023-03-07T08:47:11.521Z,45.00
2023-03-07T08:49:38.575Z,45.45
2023-03-07T08:52:05.598Z,45.38
2023-03-07T08:54:32.557Z,45.05
2023-03-07T08:57:00.497Z,46.58
2023-03-07T08:59:27.386Z,44.03
2023-03-07T09:01:55.137Z,46.20
2023-03-07T09:04:21.984Z,45.78
2023-03-07T09:06:49.969Z,45.60
2023-03-07T09:09:17.099Z,45.63
2023-03-07T09:11:43.938Z,45.00
2023-03-07T09:14:10.760Z,45.70
2023-03-07T09:16:37.710Z,46.60
2023-03-07T09:19:04.676Z,46.08
2023-03-07T09:21:31.792Z,46.35
2023-03-07T09:23:58.610Z,44.70
2023-03-07T09:26:25.512Z,44.60
2023-03-07T09:28:52.550Z,44.42
2023-03-07T09:31:19.515Z,43.65
2023-03-07T09:33:47.131Z,44.05
2023-03-07T09:36:14.913Z,44.60
2023-03-07T09:38:42.244Z,64.95
2023-03-07T09:41:34.856Z,46.78
2023-03-07T09:44:10.849Z,44.75
2023-03-07T09:46:49.768Z,46.25
2023-03-07T09:49:25.093Z,48.10
2023-03-07T09:51:53.958Z,46.05
2023-03-07T09:54:24.462Z,45.42
2023-03-07T09:56:59.844Z,44.75
2023-03-07T09:59:38.881Z,44.10
2023-03-07T10:02:15.538Z,43.05
2023-03-07T10:04:58.978Z,41.55
2023-03-07T10:07:27.665Z,41.63
2023-03-07T10:09:59.670Z,101.53
2023-03-07T10:12:48.451Z,42.63
2023-03-07T10:15:37.098Z,41.40
2023-03-07T10:18:41.608Z,37.60
2023-03-07T10:21:39.478Z,30.67
2023-03-07T10:24:21.515Z,35.80
2023-03-07T10:26:54.897Z,30.73
2023-03-07T10:29:27.442Z,34.15
2023-03-07T10:32:14.842Z,33.92
2023-03-07T10:34:41.728Z,33.03
2023-03-07T10:37:17.829Z,33.53
2023-03-07T10:39:56.210Z,32.83
2023-03-07T10:42:25.445Z,33.55
2023-03-07T10:44:52.420Z,33.75
2023-03-07T10:47:22.542Z,35.30
2023-03-07T10:49:53.570Z,35.58
2023-03-07T10:52:39.728Z,34.78
2023-03-07T10:55:37.819Z,35.85
2023-03-07T10:58:16.985Z,37.03
2023-03-07T11:00:47.544Z,29.88
2023-03-07T11:03:52.791Z,35.88
2023-03-07T11:06:50.885Z,31.90
2023-03-07T11:09:32.548Z,25.92
2023-03-07T11:12:12.034Z,29.65
2023-03-07T11:14:58.333Z,32.90
2023-03-07T11:17:43.767Z,32.10
2023-03-07T11:20:21.562Z,32.97
2023-03-07T11:22:48.881Z,32.15
2023-03-07T11:25:28.515Z,29.52
2023-03-07T11:27:59.481Z,27.45
2023-03-07T11:30:53.771Z,27.00
2023-03-07T11:33:58.624Z,24.65
2023-03-07T11:36:35.035Z,24.02
2023-03-07T11:39:14.336Z,25.17
2023-03-07T11:41:45.811Z,26.65
2023-03-07T11:44:18.447Z,26.95
2023-03-07T11:47:00.154Z,28.17
2023-03-07T11:49:37.823Z,27.92
2023-03-07T11:52:19.910Z,26.95
2023-03-07T11:57:13.366Z,25.10
2023-03-07T12:00:03.775Z,27.48
2023-03-07T12:03:05.526Z,26.75
2023-03-07T12:05:55.844Z,16.85
2023-03-07T12:08:36.785Z,20.27
2023-03-07T12:11:03.527Z,21.50
2023-03-07T12:13:40.864Z,19.60
2023-03-07T12:16:35.526Z,20.25
2023-03-07T12:19:16.210Z,20.10
2023-03-07T12:21:54.913Z,19.13
2023-03-07T12:24:37.796Z,16.20
2023-03-07T12:27:13.241Z,15.20
2023-03-07T12:29:53.123Z,15.98
2023-03-07T12:32:27.333Z,10.60
2023-03-07T12:34:56.361Z,10.20
2023-03-07T12:37:33.082Z,10.75
2023-03-07T12:40:10.268Z,10.63
2023-03-07T12:42:57.956Z,10.68
2023-03-07T12:45:29.198Z,11.50
2023-03-07T12:48:31.028Z,10.38
2023-03-07T12:51:07.453Z,10.82
2023-03-07T12:53:50.327Z,11.27
2023-03-07T12:56:28.137Z,11.70
2023-03-07T12:59:12.835Z,11.57
2023-03-07T13:01:49.233Z,12.65
2023-03-07T13:04:35.020Z,11.55
2023-03-07T13:07:10.830Z,13.00
2023-03-07T13:09:41.047Z,13.07
2023-03-07T13:12:19.965Z,12.77
2023-03-07T13:14:49.046Z,12.15
2023-03-07T13:17:31.056Z,9.40
2023-03-07T13:20:02.024Z,9.95
2023-03-07T13:22:28.754Z,10.43
2023-03-07T13:24:57.208Z,11.35
2023-03-07T13:27:42.000Z,9.32
2023-03-07T13:30:11.889Z,10.32
2023-03-07T13:32:51.041Z,9.82
2023-03-07T13:35:34.445Z,9.80
2023-03-07T13:38:05.521Z,8.80
2023-03-07T13:40:35.473Z,9.10
2023-03-07T13:43:04.670Z,9.10
2023-03-07T13:45:37.585Z,9.18
2023-03-07T13:48:29.282Z,9.18
2023-03-07T13:50:59.000Z,9.63
2023-03-07T13:53:35.492Z,8.60
2023-03-07T13:56:02.267Z,9.43
2023-03-07T13:59:02.517Z,7.90
2023-03-07T14:01:53.877Z,10.13
2023-03-07T14:04:39.921Z,9.97
2023-03-07T14:07:16.788Z,9.32
2023-03-07T14:09:59.628Z,9.68
2023-03-07T14:12:45.410Z,9.43
2023-03-07T14:15:38.695Z,10.52
2023-03-07T14:18:14.519Z,9.73
2023-03-07T14:21:07.082Z,7.82
2023-03-07T14:24:07.188Z,7.20
2023-03-07T14:26:46.274Z,7.13
2023-03-07T14:29:27.923Z,7.85
2023-03-07T14:31:59.466Z,8.55
2023-03-07T14:34:32.355Z,7.57
2023-03-07T14:37:12.188Z,8.40
2023-03-07T14:40:16.474Z,7.18
2023-03-07T14:43:14.813Z,7.78
2023-03-07T14:46:11.072Z,8.20
2023-03-07T14:49:07.320Z,7.57
2023-03-07T14:51:36.810Z,6.57
2023-03-07T14:54:13.968Z,7.60
2023-03-07T14:56:41.635Z,8.48
2023-03-07T14:59:25.905Z,9.57
2023-03-07T15:01:55.420Z,8.07
2023-03-07T15:04:31.451Z,7.22
2023-03-07T15:07:04.605Z,9.23
2023-03-07T15:09:33.671Z,7.97
2023-03-07T15:12:26.856Z,8.50
2023-03-07T15:15:03.262Z,9.95
2023-03-07T15:17:43.949Z,8.52
2023-03-07T15:20:21.354Z,9.15
2023-03-07T15:22:48.503Z,9.10
2023-03-07T15:25:25.736Z,9.68
2023-03-07T15:28:27.762Z,11.32
2023-03-07T15:30:55.946Z,10.05
2023-03-07T15:33:25.852Z,8.90
2023-03-07T15:36:11.633Z,10.32
2023-03-07T15:38:41.113Z,9.68
2023-03-07T15:41:31.714Z,8.32
2023-03-07T15:44:13.872Z,11.00
2023-03-07T15:49:37.007Z,10.52
2023-03-07T15:52:04.731Z,10.52
2023-03-07T15:54:39.248Z,9.52
2023-03-07T15:57:16.428Z,10.88
2023-03-07T15:59:50.564Z,10.05
2023-03-07T16:02:32.668Z,9.70
2023-03-07T16:07:27.609Z,10.93
2023-03-07T16:09:54.820Z,11.88
2023-03-07T16:12:24.086Z,12.60
2023-03-07T16:14:53.510Z,11.25
2023-03-07T16:17:34.359Z,13.00
2023-03-07T16:20:01.256Z,14.80
2023-03-07T16:22:29.801Z,13.85
2023-03-07T16:24:57.860Z,16.95
2023-03-07T16:27:27.928Z,14.60
2023-03-07T16:29:54.776Z,15.75
2023-03-07T16:32:23.750Z,16.02
2023-03-07T16:34:50.719Z,17.10
2023-03-07T16:37:17.902Z,16.83
2023-03-07T16:39:44.689Z,15.05
2023-03-07T16:42:23.042Z,19.25
2023-03-07T16:44:51.741Z,27.25
2023-03-07T16:47:18.854Z,29.63
2023-03-07T16:49:46.850Z,24.17
2023-03-07T16:52:14.628Z,18.33
2023-03-07T16:54:41.418Z,14.25
2023-03-07T16:57:14.532Z,14.20
2023-03-07T16:59:45.482Z,12.55
2023-03-07T17:02:17.258Z,13.65
2023-03-07T17:04:44.551Z,12.52
2023-03-07T17:07:22.141Z,13.48
2023-03-07T17:09:49.457Z,12.45
2023-03-07T17:12:17.984Z,12.18
2023-03-07T17:14:44.979Z,9.35
2023-03-07T17:17:18.508Z,8.43
2023-03-07T17:19:45.325Z,6.63
2023-03-07T17:22:12.625Z,6.30
2023-03-07T17:24:39.750Z,6.40
2023-03-07T17:27:06.867Z,7.53
2023-03-07T17:29:41.369Z,8.68
2023-03-07T17:32:08.490Z,7.45
2023-03-07T17:34:36.709Z,6.70
2023-03-07T17:37:04.468Z,8.35
2023-03-07T17:39:32.528Z,7.95
2023-03-07T17:41:59.877Z,7.15
2023-03-07T17:44:30.133Z,6.50
2023-03-07T17:46:57.260Z,7.80
2023-03-07T17:49:27.598Z,7.45
2023-03-07T17:52:00.299Z,11.43
2023-03-07T17:54:27.601Z,13.32
2023-03-07T17:56:54.401Z,40.83
2023-03-07T17:59:21.446Z,14.93
2023-03-07T18:01:48.362Z,22.38
2023-03-07T18:04:15.353Z,20.73
2023-03-07T18:06:42.144Z,83.60
2023-03-07T18:09:09.268Z,45.22
2023-03-07T18:11:36.726Z,26.08
2023-03-07T18:14:03.716Z,22.98
2023-03-07T18:16:30.888Z,21.48
2023-03-07T18:19:00.777Z,14.50
2023-03-07T18:21:29.932Z,11.20
2023-03-07T18:23:57.748Z,11.52
2023-03-07T18:26:26.059Z,35.28
2023-03-07T18:28:53.810Z,17.90
2023-03-07T18:31:25.453Z,12.32
2023-03-07T18:33:54.696Z,11.07
2023-03-07T18:36:23.365Z,11.55
2023-03-07T18:38:50.586Z,10.63
2023-03-07T18:41:22.314Z,10.65
2023-03-07T18:43:49.679Z,9.82
2023-03-07T18:46:19.344Z,13.07
2023-03-07T18:48:46.518Z,14.73
2023-03-07T18:51:15.877Z,11.50
2023-03-07T18:53:42.906Z,9.30
2023-03-07T18:56:15.259Z,10.10
2023-03-07T18:58:43.316Z,9.00
2023-03-07T19:01:11.246Z,9.40
2023-03-07T19:03:38.077Z,11.57
2023-03-07T19:06:05.235Z,13.38
2023-03-07T19:08:32.080Z,12.25
2023-03-07T19:11:02.552Z,13.35
2023-03-07T19:13:29.997Z,11.02
2023-03-07T19:16:12.103Z,9.90
2023-03-07T19:18:39.574Z,9.38
2023-03-07T19:21:11.373Z,12.38
2023-03-07T19:23:39.059Z,12.35
2023-03-07T19:26:09.480Z,11.45
2023-03-07T19:28:36.570Z,10.93
2023-03-07T19:31:08.714Z,10.43
2023-03-07T19:36:10.312Z,9.20
2023-03-07T19:38:37.859Z,10.70
2023-03-07T19:41:09.180Z,10.40
2023-03-07T19:43:35.938Z,11.43
2023-03-07T19:46:06.541Z,10.15
2023-03-07T19:48:33.489Z,11.80
2023-03-07T19:51:00.683Z,10.68
2023-03-07T19:53:27.748Z,9.82
2023-03-07T19:55:54.580Z,10.98
2023-03-07T19:58:21.418Z,10.98
2023-03-07T20:00:48.248Z,9.65
2023-03-07T20:03:16.952Z,10.13
2023-03-07T20:05:45.031Z,11.68
2023-03-07T20:08:12.339Z,11.48
2023-03-07T20:10:40.057Z,11.85
2023-03-07T20:13:07.488Z,10.30
2023-03-07T20:15:35.670Z,10.10
2023-03-07T20:18:05.804Z,15.35
2023-03-07T20:20:35.497Z,10.00
2023-03-07T20:23:02.353Z,10.40
2023-03-07T20:25:30.460Z,10.77
2023-03-07T20:27:57.938Z,10.88
2023-03-07T20:30:25.155Z,11.43
2023-03-07T20:32:51.962Z,10.70
2023-03-07T20:35:19.367Z,10.45
2023-03-07T20:37:46.163Z,15.80
2023-03-07T20:40:13.198Z,13.63
2023-03-07T20:42:40.212Z,12.35
2023-03-07T20:45:07.454Z,10.45
2023-03-07T20:47:38.119Z,9.95
2023-03-07T20:50:06.564Z,10.85
2023-03-07T20:52:35.711Z,12.13
2023-03-07T20:55:02.575Z,11.57
2023-03-07T20:57:29.341Z,11.63
2023-03-07T20:59:56.181Z,10.20
2023-03-07T21:02:22.989Z,10.93
2023-03-07T21:04:49.973Z,10.98
2023-03-07T21:07:16.787Z,13.00
2023-03-07T21:09:50.585Z,10.73
2023-03-07T21:12:18.064Z,10.48
2023-03-07T21:14:44.910Z,13.10
2023-03-07T21:17:13.127Z,13.02
2023-03-07T21:19:39.978Z,11.77
2023-03-07T21:22:06.795Z,10.10
2023-03-07T21:24:33.675Z,10.45
2023-03-07T21:27:00.455Z,9.27
2023-03-07T21:29:27.201Z,9.48
2023-03-07T21:31:54.165Z,11.20
2023-03-07T21:34:21.134Z,10.60
2023-03-07T21:36:48.139Z,10.30
2023-03-07T21:39:15.140Z,10.52
2023-03-07T21:41:42.100Z,9.45
2023-03-07T21:44:10.216Z,9.20
2023-03-07T21:46:37.376Z,8.43
2023-03-07T21:49:04.289Z,9.50
2023-03-07T21:51:31.103Z,9.90
2023-03-07T21:53:58.123Z,8.80
2023-03-07T21:56:25.281Z,8.82
2023-03-07T21:58:52.617Z,9.05
2023-03-07T22:01:23.558Z,8.70
2023-03-07T22:03:55.489Z,7.25
2023-03-07T22:06:23.422Z,8.50
2023-03-07T22:08:50.313Z,8.57
2023-03-07T22:11:17.085Z,7.88
2023-03-07T22:13:43.920Z,9.55
2023-03-07T22:16:13.613Z,8.77
2023-03-07T22:18:40.414Z,8.82
2023-03-07T22:21:14.448Z,8.10
2023-03-07T22:23:42.274Z,7.65
2023-03-07T22:26:11.163Z,7.78
2023-03-07T22:28:38.689Z,7.38
2023-03-07T22:31:09.028Z,7.40
2023-03-07T22:33:35.977Z,6.95
2023-03-07T22:36:05.647Z,8.43
2023-03-07T22:38:32.545Z,7.07
2023-03-07T22:41:14.784Z,7.25
2023-03-07T22:43:43.053Z,8.38
2023-03-07T22:46:10.610Z,7.22
2023-03-07T22:48:37.702Z,7.28
2023-03-07T22:51:04.999Z,7.25
2023-03-07T22:53:32.692Z,7.20
2023-03-07T22:56:00.462Z,7.55
2023-03-07T22:58:28.178Z,6.70
2023-03-07T23:00:55.083Z,7.28
2023-03-07T23:03:23.401Z,7.10
2023-03-07T23:05:50.370Z,6.22
2023-03-07T23:08:17.252Z,8.43
2023-03-07T23:10:44.064Z,7.90
2023-03-07T23:13:10.896Z,7.03
2023-03-07T23:15:42.575Z,6.80
2023-03-07T23:18:09.631Z,7.18
2023-03-07T23:20:39.421Z,7.03
2023-03-07T23:23:06.616Z,6.72
2023-03-07T23:25:33.900Z,6.93
2023-03-07T23:28:00.666Z,7.13
2023-03-07T23:30:27.598Z,6.43
2023-03-07T23:32:55.375Z,7.28
2023-03-07T23:35:22.350Z,7.28
2023-03-07T23:37:49.084Z,7.00
2023-03-07T23:40:15.999Z,6.90
2023-03-07T23:42:42.871Z,6.57
2023-03-07T23:45:10.083Z,6.28
2023-03-07T23:47:36.954Z,6.30
2023-03-07T23:50:04.264Z,6.18
2023-03-07T23:52:31.097Z,6.15
2023-03-07T23:54:57.846Z,6.97
2023-03-07T23:57:24.802Z,7.38
2023-03-07T23:59:52.090Z,6.03
